createdAt,value
2023-01-22T00:01:33.805Z,101723.46
2023-01-22T00:04:00.627Z,101721.21
2023-01-22T00:06:27.555Z,101718.27
2023-01-22T00:08:54.366Z,101716.55
2023-01-22T00:11:21.394Z,101715.19
2023-01-22T00:13:48.255Z,101718.27
2023-01-22T00:16:16.348Z,101722.41
2023-01-22T00:18:43.746Z,101725.86
2023-01-22T00:21:10.901Z,101730.55
2023-01-22T00:23:38.697Z,101734.52
2023-01-22T00:26:15.875Z,101733.14
2023-01-22T00:28:45.404Z,101735.41
2023-01-22T00:31:12.979Z,101741.45
2023-01-22T00:33:41.310Z,101748.52
2023-01-22T00:36:12.709Z,101747.48
2023-01-22T00:38:40.643Z,101748.19
2023-01-22T00:41:08.156Z,101748.70
2023-01-22T00:43:35.570Z,101744.91
2023-01-22T00:46:02.316Z,101744.39
2023-01-22T00:48:29.686Z,101746.27
2023-01-22T00:50:56.514Z,101749.73
2023-01-22T00:53:23.690Z,101754.23
2023-01-22T00:55:54.846Z,101758.17
2023-01-22T00:58:21.583Z,101760.08
2023-01-22T01:00:48.616Z,101760.27
2023-01-22T01:03:27.714Z,101764.07
2023-01-22T01:05:54.986Z,101760.77
2023-01-22T01:08:21.913Z,101764.94
2023-01-22T01:10:48.713Z,101768.90
2023-01-22T01:13:15.540Z,101768.57
2023-01-22T01:15:43.343Z,101775.98
2023-01-22T01:18:13.058Z,101778.38
2023-01-22T01:20:40.777Z,101783.75
2023-01-22T01:23:07.614Z,101782.55
2023-01-22T01:25:34.275Z,101779.61
2023-01-22T01:28:01.076Z,101780.32
2023-01-22T01:30:27.768Z,101784.45
2023-01-22T01:32:54.492Z,101776.52
2023-01-22T01:35:23.329Z,101776.52
2023-01-22T01:37:53.320Z,101781.34
2023-01-22T01:40:20.191Z,101781.53
2023-01-22T01:42:47.057Z,101782.91
2023-01-22T01:45:20.736Z,101783.42
2023-01-22T01:48:12.900Z,101788.93
2023-01-22T01:50:40.460Z,101794.09
2023-01-22T01:53:07.195Z,101797.54
2023-01-22T01:55:35.022Z,101793.60
2023-01-22T01:58:06.072Z,101794.45
2023-01-22T02:00:35.006Z,101794.80
2023-01-22T02:03:01.808Z,101796.02
2023-01-22T02:05:30.379Z,101800.19
2023-01-22T02:07:57.152Z,101801.22
2023-01-22T02:10:23.876Z,101802.61
2023-01-22T02:12:50.598Z,101804.85
2023-01-22T02:15:17.500Z,101805.02
2023-01-22T02:17:44.630Z,101808.47
2023-01-22T02:20:11.812Z,101813.30
2023-01-22T02:22:40.439Z,101816.58
2023-01-22T02:25:07.830Z,101817.77
2023-01-22T02:27:34.652Z,101817.59
2023-01-22T02:30:01.598Z,101820.70
2023-01-22T02:32:29.054Z,101823.27
2023-01-22T02:34:56.041Z,101828.61
2023-01-22T02:37:22.735Z,101830.34
2023-01-22T02:39:49.490Z,101834.14
2023-01-22T02:42:17.289Z,101831.40
2023-01-22T02:44:44.145Z,101831.23
2023-01-22T02:47:12.152Z,101831.75
2023-01-22T02:49:38.870Z,101835.71
2023-01-22T02:52:05.993Z,101833.65
2023-01-22T02:54:34.031Z,101831.73
2023-01-22T02:57:00.868Z,101838.30
2023-01-22T02:59:27.805Z,101841.40
2023-01-22T03:01:56.481Z,101845.05
2023-01-22T03:04:23.504Z,101845.41
2023-01-22T03:06:50.228Z,101846.95
2023-01-22T03:09:17.371Z,101846.79
2023-01-22T03:11:45.371Z,101843.00
2023-01-22T03:14:39.757Z,101845.77
2023-01-22T03:17:26.442Z,101847.48
2023-01-22T03:20:12.064Z,101846.09
2023-01-22T03:22:38.802Z,101846.61
2023-01-22T03:25:05.946Z,101852.83
2023-01-22T03:27:32.762Z,101855.77
2023-01-22T03:29:59.563Z,101855.61
2023-01-22T03:32:26.479Z,101857.00
2023-01-22T03:34:53.987Z,101859.08
2023-01-22T03:37:21.454Z,101860.98
2023-01-22T03:39:50.412Z,101861.66
2023-01-22T03:42:31.173Z,101858.22
2023-01-22T03:44:57.923Z,101863.22
2023-01-22T03:47:25.178Z,101864.95
2023-01-22T03:49:51.884Z,101865.81
2023-01-22T03:52:18.631Z,101864.77
2023-01-22T03:54:45.338Z,101870.65
2023-01-22T03:57:12.112Z,101875.16
2023-01-22T03:59:39.289Z,101876.18
2023-01-22T04:02:07.108Z,101877.06
2023-01-22T04:04:36.240Z,101880.86
2023-01-22T04:07:02.951Z,101879.83
2023-01-22T04:09:29.665Z,101882.23
2023-01-22T04:11:57.802Z,101884.30
2023-01-22T04:14:25.873Z,101888.06
2023-01-22T04:16:57.016Z,101895.63
2023-01-22T04:19:30.425Z,101901.27
2023-01-22T04:21:57.090Z,101904.16
2023-01-22T04:24:24.030Z,101908.25
2023-01-22T04:26:52.784Z,101913.06
2023-01-22T04:29:19.963Z,101921.83
2023-01-22T04:31:46.743Z,101918.89
2023-01-22T04:34:13.474Z,101916.80
2023-01-22T04:36:51.626Z,101921.29
2023-01-22T04:39:18.529Z,101918.54
2023-01-22T04:41:45.245Z,101918.52
2023-01-22T04:44:12.140Z,101917.13
2023-01-22T04:46:40.655Z,101921.08
2023-01-22T04:49:07.694Z,101928.98
2023-01-22T04:51:35.650Z,101931.20
2023-01-22T04:54:02.350Z,101933.42
2023-01-22T04:56:29.091Z,101939.61
2023-01-22T04:58:55.936Z,101944.27
2023-01-22T05:01:22.794Z,101948.56
2023-01-22T05:03:50.083Z,101951.65
2023-01-22T05:06:16.822Z,101953.73
2023-01-22T05:08:43.601Z,101954.59
2023-01-22T05:11:10.910Z,101954.23
2023-01-22T05:13:44.204Z,101956.31
2023-01-22T05:16:10.938Z,101959.06
2023-01-22T05:18:37.845Z,101963.71
2023-01-22T05:21:04.850Z,101965.44
2023-01-22T05:23:32.913Z,101963.73
2023-01-22T05:25:59.712Z,101967.85
2023-01-22T05:28:38.351Z,101971.30
2023-01-22T05:31:11.311Z,101971.27
2023-01-22T05:33:52.604Z,101977.61
2023-01-22T05:36:19.566Z,101976.56
2023-01-22T05:38:48.180Z,101984.29
2023-01-22T05:41:15.728Z,101988.94
2023-01-22T05:43:42.600Z,101992.86
2023-01-22T05:46:14.471Z,101992.32
2023-01-22T05:48:44.182Z,101992.50
2023-01-22T05:51:14.085Z,101992.84
2023-01-22T05:53:42.045Z,101997.64
2023-01-22T05:56:09.684Z,102002.94
2023-01-22T05:58:38.567Z,102005.66
2023-01-22T06:01:05.821Z,102007.38
2023-01-22T06:03:38.717Z,102007.02
2023-01-22T06:06:08.162Z,102006.47
2023-01-22T06:08:34.918Z,102010.75
2023-01-22T06:11:06.778Z,102010.39
2023-01-22T06:13:33.691Z,102015.56
2023-01-22T06:16:07.324Z,102015.69
2023-01-22T06:18:52.823Z,102017.57
2023-01-22T06:21:19.859Z,102019.29
2023-01-22T06:23:46.760Z,102023.45
2023-01-22T06:26:13.544Z,102027.92
2023-01-22T06:28:41.016Z,102029.80
2023-01-22T06:31:07.994Z,102034.09
2023-01-22T06:33:35.890Z,102048.73
2023-01-22T06:36:03.240Z,102052.91
2023-01-22T06:38:30.139Z,102057.78
2023-01-22T06:40:59.206Z,102064.52
2023-01-22T06:43:26.683Z,102064.85
2023-01-22T06:45:53.676Z,102065.89
2023-01-22T06:48:23.484Z,102072.46
2023-01-22T06:50:50.263Z,102070.05
2023-01-22T06:53:17.084Z,102077.12
2023-01-22T06:55:43.779Z,102079.53
2023-01-22T06:58:10.539Z,102082.61
2023-01-22T07:00:37.739Z,102081.41
2023-01-22T07:03:08.596Z,102081.59
2023-01-22T07:05:35.395Z,102083.82
2023-01-22T07:08:02.115Z,102080.20
2023-01-22T07:10:28.866Z,102086.02
2023-01-22T07:12:55.887Z,102083.77
2023-01-22T07:15:22.629Z,102087.39
2023-01-22T07:17:51.256Z,102090.18
2023-01-22T07:20:19.266Z,102084.49
2023-01-22T07:22:46.234Z,102089.63
2023-01-22T07:25:13.052Z,102088.59
2023-01-22T07:27:39.984Z,102088.93
2023-01-22T07:30:07.436Z,102089.11
2023-01-22T07:32:35.394Z,102089.46
2023-01-22T07:35:02.111Z,102093.30
2023-01-22T07:37:28.833Z,102090.54
2023-01-22T07:39:55.647Z,102088.11
2023-01-22T07:42:24.659Z,102091.05
2023-01-22T07:44:51.530Z,102091.09
2023-01-22T07:47:18.339Z,102093.19
2023-01-22T07:49:45.062Z,102097.31
2023-01-22T07:52:11.819Z,102094.02
2023-01-22T07:54:38.547Z,102100.23
2023-01-22T07:57:05.308Z,102102.52
2023-01-22T07:59:32.108Z,102100.65
2023-01-22T08:01:58.860Z,102105.17
2023-01-22T08:04:25.635Z,102109.02
2023-01-22T08:06:52.509Z,102108.33
2023-01-22T10:13:27.228Z,102164.64
2023-01-22T10:15:54.658Z,102164.13
2023-01-22T10:18:45.503Z,102164.31
2023-01-22T10:21:21.158Z,102162.77
2023-01-22T10:23:49.643Z,102165.89
2023-01-22T10:26:24.681Z,102161.23
2023-01-22T10:28:57.851Z,102166.02
2023-01-22T10:31:33.772Z,102166.64
2023-01-22T10:34:03.147Z,102169.51
2023-01-22T10:36:30.412Z,102169.29
2023-01-22T10:39:11.524Z,102170.52
2023-01-22T10:41:40.328Z,102170.23
2023-01-22T10:44:21.411Z,102170.78
2023-01-22T10:46:49.168Z,102172.52
2023-01-22T10:49:26.376Z,102173.40
2023-01-22T10:51:58.492Z,102175.98
2023-01-22T10:54:33.395Z,102182.53
2023-01-22T10:57:16.221Z,102178.75
2023-01-22T10:59:50.604Z,102179.93
2023-01-22T11:02:20.987Z,102177.52
2023-01-22T11:04:47.685Z,102181.31
2023-01-22T11:07:18.987Z,102184.76
2023-01-22T11:09:50.362Z,102182.80
2023-01-22T11:12:29.085Z,102182.30
2023-01-22T11:15:25.257Z,102179.54
2023-01-22T11:18:01.580Z,102183.30
2023-01-22T11:20:43.618Z,102178.59
2023-01-22T11:23:10.168Z,102177.52
2023-01-22T11:25:54.840Z,102180.27
2023-01-22T11:28:59.962Z,102173.55
2023-01-22T11:31:51.331Z,102172.52
2023-01-22T11:34:28.334Z,102174.27
2023-01-22T11:37:11.440Z,102174.11
2023-01-22T11:39:56.782Z,102178.80
2023-01-22T11:42:26.084Z,102177.95
2023-01-22T11:45:04.713Z,102181.05
2023-01-22T11:48:16.672Z,102179.82
2023-01-22T11:51:01.602Z,102187.67
2023-01-22T11:54:12.134Z,102186.61
2023-01-22T11:56:48.266Z,102190.91
2023-01-22T11:59:29.600Z,102193.85
2023-01-22T12:02:16.175Z,102193.98
2023-01-22T12:05:04.799Z,102197.70
2023-01-22T12:07:53.388Z,102201.45
2023-01-22T12:10:29.042Z,102203.67
2023-01-22T12:13:26.193Z,102201.73
2023-01-22T12:15:56.732Z,102201.02
2023-01-22T12:18:44.778Z,102209.45
2023-01-22T12:21:21.331Z,102210.84
2023-01-22T12:23:53.216Z,102208.91
2023-01-22T12:26:28.839Z,102207.66
2023-01-22T12:29:01.651Z,102209.17
2023-01-22T12:31:35.708Z,102211.86
2023-01-22T12:34:04.126Z,102214.73
2023-01-22T12:36:32.119Z,102221.06
2023-01-22T12:39:37.965Z,102216.70
2023-01-22T12:42:31.760Z,102215.47
2023-01-22T12:45:04.239Z,102221.62
2023-01-22T12:47:45.098Z,102221.88
2023-01-22T12:50:19.889Z,102228.01
2023-01-22T12:52:57.818Z,102232.07
2023-01-22T12:55:44.488Z,102233.25
2023-01-22T12:58:21.458Z,102231.73
2023-01-22T13:01:02.806Z,102231.22
2023-01-22T13:03:32.133Z,102238.75
2023-01-22T13:06:01.334Z,102241.17
2023-01-22T13:08:38.951Z,102243.77
2023-01-22T13:11:08.279Z,102247.52
2023-01-22T13:13:44.790Z,102250.86
2023-01-22T13:16:19.371Z,102249.89
2023-01-22T13:18:51.178Z,102252.72
2023-01-22T13:21:29.754Z,102256.31
2023-01-22T13:23:58.388Z,102255.61
2023-01-22T13:26:26.764Z,102256.13
2023-01-22T13:28:54.963Z,102251.13
2023-01-22T13:31:25.067Z,102252.96
2023-01-22T13:33:53.295Z,102254.00
2023-01-22T13:36:19.910Z,102251.41
2023-01-22T13:38:57.289Z,102251.77
2023-01-22T13:41:34.362Z,102255.70
2023-01-22T13:44:01.876Z,102256.85
2023-01-22T13:46:29.209Z,102253.86
2023-01-22T13:49:01.251Z,102256.04
2023-01-22T13:51:28.257Z,102258.58
2023-01-22T13:53:55.034Z,102258.02
2023-01-22T13:56:23.370Z,102262.28
2023-01-22T13:58:50.204Z,102267.73
2023-01-22T14:01:31.386Z,102271.48
2023-01-22T14:04:22.230Z,102270.85
2023-01-22T14:06:49.974Z,102276.98
2023-01-22T14:09:26.779Z,102278.14
2023-01-22T14:11:54.045Z,102280.19
2023-01-22T14:14:20.644Z,102282.25
2023-01-22T14:16:48.422Z,102284.68
2023-01-22T14:19:15.412Z,102288.64
2023-01-22T14:21:42.727Z,102288.10
2023-01-22T14:24:09.322Z,102289.38
2023-01-22T14:26:35.994Z,102294.79
2023-01-22T14:29:02.710Z,102298.23
2023-01-22T14:31:29.604Z,102296.89
2023-01-22T14:33:56.227Z,102304.80
2023-01-22T14:36:22.859Z,102309.98
2023-01-22T14:38:50.837Z,102315.70
2023-01-22T14:41:20.512Z,102317.38
2023-01-22T14:43:47.263Z,102321.09
2023-01-22T14:46:14.062Z,102322.77
2023-01-22T14:48:40.738Z,102326.52
2023-01-22T14:51:09.645Z,102323.08
2023-01-22T14:53:37.151Z,102325.66
2023-01-22T14:56:04.390Z,102328.89
2023-01-22T14:58:31.436Z,102330.70
2023-01-22T15:00:58.217Z,102328.41
2023-01-22T15:03:24.968Z,102330.09
2023-01-22T15:05:51.975Z,102330.60
2023-01-22T15:08:18.712Z,102330.06
2023-01-22T15:10:47.693Z,102332.32
2023-01-22T15:13:14.475Z,102329.42
2023-01-22T15:15:41.875Z,102325.02
2023-01-22T15:18:08.695Z,102327.13
2023-01-22T15:20:35.516Z,102327.83
2023-01-22T15:23:02.139Z,102335.03
2023-01-22T15:25:31.611Z,102336.77
2023-01-22T15:27:58.356Z,102339.14
2023-01-22T15:30:25.444Z,102339.02
2023-01-22T15:32:52.524Z,102340.30
2023-01-22T15:35:19.217Z,102344.35
2023-01-22T15:37:47.861Z,102348.70
2023-01-22T15:40:14.623Z,102348.27
2023-01-22T15:42:41.363Z,102352.66
2023-01-22T15:45:08.559Z,102352.95
2023-01-22T15:47:35.885Z,102356.20
2023-01-22T15:50:03.251Z,102360.14
2023-01-22T15:52:30.892Z,102355.96
2023-01-22T15:54:57.930Z,102357.50
2023-01-22T15:57:24.700Z,102355.11
2023-01-22T15:59:51.479Z,102353.17
2023-01-22T16:02:18.271Z,102353.48
2023-01-22T16:04:45.023Z,102356.46
2023-01-22T16:07:11.692Z,102357.02
2023-01-22T16:09:38.739Z,102355.78
2023-01-22T16:12:06.105Z,102359.20
2023-01-22T16:14:35.011Z,102363.83
2023-01-22T16:17:01.858Z,102363.14
2023-01-22T16:19:28.677Z,102363.27
2023-01-22T16:21:55.445Z,102373.41
2023-01-22T16:24:22.061Z,102369.92
2023-01-22T16:26:48.654Z,102372.98
2023-01-22T16:29:15.253Z,102370.32
2023-01-22T16:31:42.172Z,102373.61
2023-01-22T16:34:11.707Z,102373.23
2023-01-22T16:36:39.034Z,102374.77
2023-01-22T16:39:05.864Z,102373.63
2023-01-22T16:41:33.782Z,102375.05
2023-01-22T16:44:05.069Z,102373.05
2023-01-22T16:46:38.914Z,102378.92
2023-01-22T16:49:14.134Z,102382.03
2023-01-22T16:51:45.350Z,102380.99
2023-01-22T16:54:36.139Z,102384.27
2023-01-22T16:57:04.381Z,102385.77
2023-01-22T16:59:33.053Z,102384.57
2023-01-22T17:02:04.321Z,102386.08
2023-01-22T17:04:31.682Z,102388.65
2023-01-22T17:06:59.415Z,102390.09
2023-01-22T17:09:31.660Z,102390.14
2023-01-22T17:12:00.824Z,102396.08
2023-01-22T17:14:29.599Z,102396.52
2023-01-22T17:16:57.548Z,102395.98
2023-01-22T17:19:24.251Z,102396.88
2023-01-22T17:21:54.603Z,102398.45
2023-01-22T17:24:22.484Z,102399.17
2023-01-22T17:26:49.964Z,102406.29
2023-01-22T17:29:16.875Z,102407.16
2023-01-22T17:31:44.647Z,102408.45
2023-01-22T17:34:11.408Z,102412.20
2023-01-22T17:36:38.682Z,102414.19
2023-01-22T17:39:06.091Z,102419.73
2023-01-22T17:41:34.280Z,102422.77
2023-01-22T17:44:01.019Z,102423.44
2023-01-22T17:46:31.255Z,102428.89
2023-01-22T17:48:58.704Z,102429.88
2023-01-22T17:51:26.588Z,102430.83
2023-01-22T17:53:54.665Z,102432.98
2023-01-22T17:56:24.528Z,102432.84
2023-01-22T17:58:53.451Z,102437.98
2023-01-22T18:01:23.148Z,102432.69
2023-01-22T18:03:49.884Z,102435.91
2023-01-22T18:06:16.907Z,102438.09
2023-01-22T18:08:44.059Z,102432.08
2023-01-22T18:11:25.873Z,102432.67
2023-01-22T18:13:56.628Z,102435.14
2023-01-22T18:16:23.967Z,102441.25
2023-01-22T18:18:51.931Z,102441.20
2023-01-22T18:21:18.865Z,102443.34
2023-01-22T18:23:46.024Z,102447.02
2023-01-22T18:26:13.552Z,102447.42
2023-01-22T18:28:40.338Z,102448.95
2023-01-22T18:31:12.185Z,102446.89
2023-01-22T18:33:41.153Z,102449.36
2023-01-22T18:36:11.639Z,102452.11
2023-01-22T18:38:39.500Z,102449.86
2023-01-22T18:41:09.885Z,102449.20
2023-01-22T18:43:37.541Z,102455.27
2023-01-22T18:46:05.251Z,102457.90
2023-01-22T18:48:35.213Z,102461.80
2023-01-22T18:51:02.673Z,102463.66
2023-01-22T18:53:30.329Z,102466.23
2023-01-22T18:56:04.938Z,102467.92
2023-01-22T18:58:35.332Z,102465.20
2023-01-22T19:01:20.529Z,102465.46
2023-01-22T19:03:50.771Z,102464.59
2023-01-22T19:06:20.430Z,102469.60
2023-01-22T19:09:02.121Z,102471.64
2023-01-22T19:11:30.336Z,102471.71
2023-01-22T19:13:57.980Z,102468.66
2023-01-22T19:16:24.715Z,102468.02
2023-01-22T19:18:55.868Z,102470.23
2023-01-22T19:21:22.845Z,102474.81
2023-01-22T19:23:52.230Z,102475.29
2023-01-22T19:26:21.178Z,102474.77
2023-01-22T19:28:51.425Z,102476.62
2023-01-22T19:31:25.386Z,102479.67
2023-01-22T19:33:52.877Z,102484.49
2023-01-22T19:36:22.473Z,102483.22
2023-01-22T19:38:49.762Z,102486.18
2023-01-22T19:41:16.612Z,102486.89
2023-01-22T19:43:43.778Z,102487.14
2023-01-22T19:46:11.922Z,102487.36
2023-01-22T19:48:38.808Z,102484.38
2023-01-22T19:51:07.687Z,102482.00
2023-01-22T19:53:34.961Z,102484.60
2023-01-22T19:56:01.762Z,102485.55
2023-01-22T19:58:28.797Z,102485.39
2023-01-22T20:00:57.459Z,102481.67
2023-01-22T20:03:26.521Z,102480.70
2023-01-22T20:05:54.068Z,102482.05
2023-01-22T20:08:21.040Z,102485.61
2023-01-22T20:10:50.433Z,102483.26
2023-01-22T20:13:17.221Z,102484.40
2023-01-22T20:15:43.914Z,102487.48
2023-01-22T20:18:10.638Z,102483.16
2023-01-22T20:20:37.577Z,102482.21
2023-01-22T20:23:04.367Z,102484.38
2023-01-22T20:25:32.878Z,102483.89
2023-01-22T20:28:00.438Z,102483.48
2023-01-22T20:30:27.164Z,102486.52
2023-01-22T20:32:56.340Z,102489.42
2023-01-22T20:35:23.445Z,102487.11
2023-01-22T20:37:50.383Z,102488.20
2023-01-22T20:40:17.298Z,102488.92
2023-01-22T20:42:44.100Z,102490.84
2023-01-22T20:45:10.628Z,102495.45
2023-01-22T20:47:37.337Z,102491.16
2023-01-22T20:50:05.017Z,102492.84
2023-01-22T20:52:32.453Z,102499.17
2023-01-22T20:55:02.297Z,102505.22
2023-01-22T20:57:29.731Z,102508.83
2023-01-22T20:59:57.512Z,102505.80
2023-01-22T21:02:24.484Z,102508.10
2023-01-22T21:05:11.893Z,102505.05
2023-01-22T21:07:38.740Z,102509.51
2023-01-22T21:10:06.051Z,102508.20
2023-01-22T21:12:33.252Z,102512.63
2023-01-22T21:15:02.455Z,102507.92
2023-01-22T21:17:30.655Z,102513.57
2023-01-22T21:19:57.569Z,102510.99
2023-01-22T21:22:25.553Z,102511.22
2023-01-22T21:24:52.270Z,102509.39
2023-01-22T21:27:19.016Z,102510.00
2023-01-22T21:29:45.736Z,102511.35
2023-01-22T21:32:12.385Z,102508.05
2023-01-22T21:34:39.920Z,102511.27
2023-01-22T21:37:06.497Z,102506.03
2023-01-22T21:39:33.389Z,102504.08
2023-01-22T21:42:26.331Z,102503.35
2023-01-22T21:45:11.955Z,102508.39
2023-01-22T21:47:38.535Z,102503.77
2023-01-22T21:50:05.509Z,102502.23
2023-01-22T21:52:32.521Z,102499.02
2023-01-22T21:54:59.069Z,102500.34
2023-01-22T21:57:26.193Z,102500.54
2023-01-22T21:59:52.741Z,102503.68
